Tampa, FL

09:49 PM EDT die 01o September, anno 2014 (GMT -0400)
Independence Park | Change Station
CLOSE
Current Station
Personal Weather Stations
Location: MacDill AFB, FL
Elevation: 0 ft
Nearby Weather Stations

Elev 0 ft 27.85 °N, 82.48 °W | Updated 12 seconds ago

Scattered Clouds
Nubes Dispersae
78.3 °F
Feels Like 81 °F
N
3.0
Ventus Variabilis Ventus from Magis Eurus quam Aquilo
Gusts 3.0 mph

Hodie
High -- | Low -- °F
--% Chance of Precip.
Yesterday
High -- | Low -- °F
Precip. -- in
7:08 AM 7:50 PM
Waxing Crescent, 46% visible
Pressio 30.07 in
Visibilitas 10.0 milia passuum
Clouds Nubes Dispersae 5500 ft
Index Caloris 81 °F
Frigus in quo Ros apparet 74 °F
Umor 88%
Rainfall 0.04 in
Snow Depth Not available.
UV 0 out of 12
Pollen 5.20 out of 12
Air Quality Not available.
Flu Activity Not available.
SPECI KMCF 020104Z AUTO 00000KT 10SM SCT055 24/23 A3007 RMK AO2 LTG DSNT N TSE0104

More Conditions Fewer Conditions

Pressio 30.07 in
Visibilitas 10.0 milia passuum
Clouds Nubes Dispersae 5500 ft
Index Caloris 81 °F
Frigus in quo Ros apparet 74 °F
Umor 88%
Rainfall 0.04 in
Snow Depth Not available.
UV 0 out of 12
Pollen 5.20 out of 12
Air Quality Not available.
Flu Activity Not available.
SPECI KMCF 020104Z AUTO 00000KT 10SM SCT055 24/23 A3007 RMK AO2 LTG DSNT N TSE0104

More Conditions Fewer Conditions

10-Day Weather Forecast

Almanac

Astronomy

Sep. 01, 2014 Rise Set
Actual Time 7:08 AM EDT 7:50 PM EDT
Civil Twilight 6:44 AM EDT 8:14 PM EDT
Nautical Twilight 6:16 AM EDT 8:42 PM EDT
Astronomical Twilight 5:48 AM EDT 9:11 PM EDT
Moon 1:19 PM EDT (9/1) Nulla Occasus Lunae
Length Of Visible Light 13h 29m
Length of Day
12h 42m
Tomorrow will be 1m 35s shorter.
Waxing Crescent, 46% of the Moon is Illuminated
Hodie
Waxing Crescent
Sep 2
First Quarter
Sep 8
Full
Sep 15
Last Quarter
Sep 24
New

Today's Extremes

State Highs State Lows

Community

WunderPhotos

Upload Photos

1,749,476 photos uploaded!

Nearby

Snow Depth

Station Depth Elevation
No new snow has been reported.

Earthquake Activity

City Distance Mag. Time & Date
No recent earthquake activity has been reported nearby.
Minimum magnitude displayed is 2.5.

Coastal Water Temperatures

Locus Calor
St Petersburg, FL 91.0 °F
Old Port Tampa, FL 89.1 °F
McKay Bay Entrance, FL 89.1 °F

Nearby Weather Stations